KCOU/COU METAR and TAF weather

Enter ICAO airport designator
Station Type Date Time Source
KCOU METAR 2021/03/01 03:54 UTC NOAA

KCOU 010354Z AUTO 34009KT 10SM CLR 03/M01 A3011 RMK AO2 SLP197 T00331011


Station Type Date Time Source
KCOU Decoded METAR 2021/03/01 03:54 UTC NOAA

COLUMBIA REGIONAL AIRPORT, MO, United States (KCOU) 38-49N 092-13W 271M
Feb 28, 2021 - 10:54 PM EST / 2021.03.01 0354 UTC
Wind: from the NNW (340 degrees) at 10 MPH (9 KT):0
Visibility: 10 mile(s):0
Sky conditions: clear
Temperature: 37.9 F (3.3 C)
Dew Point: 30.0 F (-1.1 C)
Relative Humidity: 72%
Pressure (altimeter): 30.11 in. Hg (1019 hPa)
ob: KCOU 010354Z AUTO 34009KT 10SM CLR 03/M01 A3011 RMK AO2 SLP197 T00331011
cycle: 4

Station Type Date Time Source
KCOU TAF 2021/03/01 03:57 UTC NOAA

TAF
AMD KCOU 010253Z 0103/0124 33010KT P6SM SCT030 BKN250
FM011700 25005KT P6SM SKC

Example: see airport list